createdAt,value
2022-11-23T00:00:28.217Z,7.05
2022-11-23T00:02:59.201Z,7.06
2022-11-23T00:05:34.183Z,7.15
2022-11-23T00:08:08.036Z,7.05
2022-11-23T00:10:38.147Z,7.12
2022-11-23T00:13:11.335Z,7.13
2022-11-23T00:15:41.755Z,7.12
2022-11-23T00:18:15.150Z,7.03
2022-11-23T00:20:45.666Z,7.11
2022-11-23T00:23:18.658Z,7.17
2022-11-23T00:25:59.026Z,7.09
2022-11-23T00:28:29.528Z,7.07
2022-11-23T00:31:02.513Z,7.13
2022-11-23T00:33:30.161Z,7.06
2022-11-23T00:36:03.049Z,7.01
2022-11-23T00:38:33.462Z,7.07
2022-11-23T00:41:05.098Z,7.25
2022-11-23T00:43:35.831Z,7.15
2022-11-23T00:46:09.818Z,7.20
2022-11-23T00:48:40.713Z,7.06
2022-11-23T00:51:17.067Z,7.13
2022-11-23T00:53:47.263Z,7.22
2022-11-23T00:56:17.568Z,7.05
2022-11-23T00:58:54.547Z,7.09
2022-11-23T01:01:30.636Z,7.13
2022-11-23T01:04:00.611Z,7.13
2022-11-23T01:06:30.882Z,7.12
2022-11-23T01:09:07.398Z,7.16
2022-11-23T01:11:38.088Z,7.22
2022-11-23T01:14:10.446Z,7.19
2022-11-23T01:16:43.708Z,7.15
2022-11-23T01:19:17.112Z,7.16
2022-11-23T01:21:45.203Z,7.28
2022-11-23T01:24:23.064Z,7.19
2022-11-23T01:27:01.776Z,7.08
2022-11-23T01:29:34.953Z,7.09
2022-11-23T01:32:05.191Z,7.32
2022-11-23T01:34:35.541Z,7.27
2022-11-23T01:37:11.246Z,7.17
2022-11-23T01:39:42.187Z,7.14
2022-11-23T01:42:17.585Z,7.31
2022-11-23T01:44:52.088Z,7.24
2022-11-23T01:47:22.571Z,7.19
2022-11-23T01:49:56.223Z,7.18
2022-11-23T01:52:29.319Z,7.36
2022-11-23T01:55:08.441Z,7.12
2022-11-23T01:57:43.612Z,7.06
2022-11-23T02:00:14.244Z,7.06
2022-11-23T02:02:50.987Z,7.15
2022-11-23T02:05:25.043Z,7.13
2022-11-23T02:07:56.361Z,7.06
2022-11-23T02:10:26.765Z,7.04
2022-11-23T02:12:57.297Z,7.25
2022-11-23T02:15:31.082Z,7.18
2022-11-23T02:17:59.563Z,7.00
2022-11-23T02:20:30.157Z,7.11
2022-11-23T02:23:00.265Z,7.19
2022-11-23T02:25:54.373Z,7.19
2022-11-23T02:28:42.745Z,7.07
2022-11-23T02:31:12.778Z,7.07
2022-11-23T02:33:46.401Z,7.11
2022-11-23T02:36:34.237Z,6.99
2022-11-23T02:39:11.121Z,6.99
2022-11-23T02:41:52.581Z,7.06
2022-11-23T02:44:42.238Z,7.04
2022-11-23T02:47:12.571Z,6.97
2022-11-23T02:49:46.484Z,6.95
2022-11-23T02:52:17.579Z,7.10
2022-11-23T02:54:47.785Z,7.15
2022-11-23T02:57:17.652Z,7.00
2022-11-23T02:59:47.666Z,7.03
2022-11-23T03:02:18.112Z,7.23
2022-11-23T03:04:48.521Z,7.22
2022-11-23T03:07:18.491Z,7.12
2022-11-23T03:09:51.346Z,7.11
2022-11-23T03:12:24.255Z,7.02
2022-11-23T03:14:54.300Z,7.05
2022-11-23T03:17:27.235Z,7.09
2022-11-23T03:19:57.418Z,7.04
2022-11-23T03:22:27.557Z,7.14
2022-11-23T03:24:57.426Z,7.03
2022-11-23T03:27:30.108Z,7.04
2022-11-23T03:29:57.592Z,6.95
2022-11-23T03:32:28.010Z,7.08
2022-11-23T03:35:00.651Z,7.17
2022-11-23T03:37:31.432Z,7.19
2022-11-23T03:40:02.278Z,7.10
2022-11-23T03:42:35.741Z,7.33
2022-11-23T03:45:05.799Z,7.25
2022-11-23T03:47:38.315Z,7.25
2022-11-23T03:50:06.038Z,7.13
2022-11-23T03:52:36.269Z,7.12
2022-11-23T03:55:06.429Z,7.09
2022-11-23T03:57:40.026Z,7.00
2022-11-23T04:00:10.352Z,7.03
2022-11-23T04:02:40.432Z,7.07
2022-11-23T04:05:08.525Z,7.07
2022-11-23T04:07:38.415Z,7.01
2022-11-23T04:10:11.773Z,7.08
2022-11-23T04:12:43.141Z,7.06
2022-11-23T04:15:18.967Z,7.08
2022-11-23T04:17:48.499Z,7.05
2022-11-23T04:20:16.095Z,7.15
2022-11-23T04:22:46.758Z,7.10
2022-11-23T04:25:16.546Z,7.17
2022-11-23T04:27:50.028Z,7.20
2022-11-23T04:30:23.983Z,7.24
2022-11-23T04:32:54.293Z,9.64
2022-11-23T04:35:25.030Z,11.40
2022-11-23T04:37:55.136Z,11.14
2022-11-23T04:40:25.680Z,11.21
2022-11-23T04:42:56.422Z,10.96
2022-11-23T04:45:34.333Z,10.65
2022-11-23T04:48:05.150Z,11.35
2022-11-23T04:50:35.640Z,11.57
2022-11-23T04:53:08.325Z,10.29
2022-11-23T04:55:42.612Z,9.84
2022-11-23T04:58:21.131Z,8.90
2022-11-23T05:00:52.354Z,8.40
2022-11-23T05:03:20.658Z,8.11
2022-11-23T05:06:03.912Z,7.89
2022-11-23T05:08:35.363Z,7.93
2022-11-23T05:11:07.095Z,7.84
2022-11-23T05:13:40.220Z,8.04
2022-11-23T05:16:16.398Z,7.93
2022-11-23T05:18:43.984Z,7.83
2022-11-23T05:21:14.735Z,7.77
2022-11-23T05:23:45.122Z,7.63
2022-11-23T05:26:18.502Z,7.79
2022-11-23T05:28:55.060Z,7.80
2022-11-23T05:31:28.158Z,7.78
2022-11-23T05:34:01.012Z,7.81
2022-11-23T05:36:35.773Z,7.79
2022-11-23T05:39:05.042Z,7.75
2022-11-23T05:41:37.760Z,7.75
2022-11-23T05:44:11.349Z,7.95
2022-11-23T05:46:44.752Z,7.69
2022-11-23T05:49:11.975Z,7.68
2022-11-23T05:51:39.146Z,7.71
2022-11-23T05:54:06.462Z,7.60
2022-11-23T05:56:40.187Z,7.62
2022-11-23T05:59:12.171Z,7.67
2022-11-23T06:01:39.319Z,7.76
2022-11-23T06:04:06.609Z,7.80
2022-11-23T06:06:34.439Z,7.64
2022-11-23T06:09:03.454Z,7.47
2022-11-23T06:11:30.744Z,7.61
2022-11-23T06:13:58.254Z,7.65
2022-11-23T06:16:25.364Z,7.65
2022-11-23T06:18:53.226Z,7.66
2022-11-23T06:21:20.412Z,7.72
2022-11-23T06:23:48.119Z,7.82
2022-11-23T06:26:15.662Z,7.69
2022-11-23T06:28:43.909Z,7.70
2022-11-23T06:31:11.020Z,7.79
2022-11-23T06:33:38.446Z,7.90
2022-11-23T06:36:06.029Z,7.89
2022-11-23T06:38:33.296Z,7.84
2022-11-23T06:41:01.703Z,7.93
2022-11-23T06:43:29.379Z,7.96
2022-11-23T06:45:56.726Z,7.72
2022-11-23T06:48:23.911Z,7.79
2022-11-23T06:50:51.516Z,7.84
2022-11-23T06:53:21.300Z,8.02
2022-11-23T06:55:48.512Z,7.97
2022-11-23T06:58:19.346Z,7.99
2022-11-23T07:00:46.473Z,7.96
2022-11-23T07:03:25.194Z,8.13
2022-11-23T07:05:52.388Z,8.10
2022-11-23T07:08:23.041Z,8.14
2022-11-23T07:11:02.981Z,8.23
2022-11-23T07:13:33.088Z,8.45
2022-11-23T07:16:03.194Z,8.35
2022-11-23T07:18:33.263Z,8.24
2022-11-23T07:21:02.945Z,8.22
2022-11-23T07:23:33.603Z,8.44
2022-11-23T07:26:05.661Z,8.54
2022-11-23T07:28:38.841Z,8.62
2022-11-23T07:31:10.103Z,8.27
2022-11-23T07:33:46.631Z,8.65
2022-11-23T07:36:19.376Z,8.71
2022-11-23T07:38:46.934Z,8.65
2022-11-23T07:41:20.467Z,8.64
2022-11-23T07:43:50.703Z,8.76
2022-11-23T07:46:28.765Z,8.85
2022-11-23T07:48:59.713Z,8.87
2022-11-23T07:51:27.269Z,8.83
2022-11-23T07:53:54.875Z,8.93
2022-11-23T07:56:22.211Z,9.09
2022-11-23T07:58:55.346Z,9.12
2022-11-23T08:01:25.631Z,9.14
2022-11-23T08:03:53.695Z,9.10
2022-11-23T08:06:21.242Z,9.00
2022-11-23T08:08:51.081Z,8.96
2022-11-23T08:11:18.290Z,9.00
2022-11-23T08:13:45.511Z,8.93
2022-11-23T08:16:16.002Z,8.99
2022-11-23T08:18:48.890Z,9.09
2022-11-23T08:21:29.947Z,8.98
2022-11-23T08:23:59.734Z,9.09
2022-11-23T08:26:35.876Z,9.01
2022-11-23T08:29:12.217Z,9.09
2022-11-23T08:31:39.787Z,9.08
2022-11-23T08:34:07.162Z,9.23
2022-11-23T08:36:36.870Z,9.20
2022-11-23T08:39:13.144Z,9.21
2022-11-23T08:41:46.769Z,9.12
2022-11-23T08:44:14.766Z,9.28
2022-11-23T08:46:48.157Z,9.29
2022-11-23T08:49:20.924Z,9.17
2022-11-23T08:51:50.227Z,9.32
2022-11-23T08:54:20.096Z,9.28
2022-11-23T08:56:47.450Z,9.34
2022-11-23T08:59:21.578Z,9.22
2022-11-23T09:01:52.274Z,9.21
2022-11-23T09:04:22.877Z,9.25
2022-11-23T09:06:55.249Z,9.23
2022-11-23T09:09:25.525Z,9.24
2022-11-23T09:11:56.490Z,9.31
2022-11-23T09:14:23.649Z,9.34
2022-11-23T09:16:50.824Z,9.44
2022-11-23T09:19:17.961Z,9.50
2022-11-23T09:21:45.140Z,9.43
2022-11-23T09:24:15.326Z,9.43
2022-11-23T09:26:47.962Z,9.47
2022-11-23T09:29:21.611Z,9.50
2022-11-23T09:31:51.577Z,9.48
2022-11-23T09:34:27.694Z,9.56
2022-11-23T09:37:00.286Z,9.50
2022-11-23T09:39:30.267Z,9.56
2022-11-23T09:42:29.251Z,9.46
2022-11-23T09:45:11.364Z,9.58
2022-11-23T09:47:51.072Z,9.56
2022-11-23T09:50:42.947Z,9.62
2022-11-23T09:53:16.047Z,9.77
2022-11-23T09:55:50.305Z,9.91
2022-11-23T09:58:22.438Z,9.76
2022-11-23T10:01:11.445Z,9.85
2022-11-23T10:03:48.264Z,9.93
2022-11-23T10:06:27.790Z,9.94
2022-11-23T10:09:20.244Z,9.83
2022-11-23T10:12:18.095Z,9.88
2022-11-23T10:14:59.344Z,9.94
2022-11-23T10:17:35.300Z,9.90
2022-11-23T10:20:08.326Z,9.93
2022-11-23T10:22:48.074Z,10.00
2022-11-23T10:25:20.769Z,10.05
2022-11-23T10:27:51.105Z,10.13
2022-11-23T10:30:19.966Z,10.06
2022-11-23T10:32:55.191Z,10.00
2022-11-23T10:35:30.069Z,10.04
2022-11-23T10:38:18.673Z,9.93
2022-11-23T10:41:09.581Z,10.07
2022-11-23T10:44:32.794Z,9.95
2022-11-23T10:47:04.193Z,9.95
2022-11-23T10:49:35.342Z,9.94
2022-11-23T10:52:06.206Z,10.06
2022-11-23T10:54:48.419Z,10.15
2022-11-23T10:57:27.655Z,10.08
2022-11-23T11:00:16.441Z,9.93
2022-11-23T11:02:44.361Z,10.00
2022-11-23T11:06:07.138Z,10.11
2022-11-23T11:08:27.676Z,10.14
2022-11-23T11:11:21.162Z,10.21
2022-11-23T11:13:51.689Z,10.23
2022-11-23T11:16:31.246Z,10.23
2022-11-23T11:19:22.851Z,10.27
2022-11-23T11:21:49.970Z,10.25
2022-11-23T11:24:25.668Z,10.37
2022-11-23T11:27:00.237Z,10.37
2022-11-23T11:29:50.561Z,10.31
2022-11-23T11:32:49.099Z,10.23
2022-11-23T11:35:28.693Z,10.34
2022-11-23T11:38:25.104Z,10.34
2022-11-23T11:40:53.130Z,10.33
2022-11-23T11:43:22.822Z,10.26
2022-11-23T11:46:27.521Z,10.35
2022-11-23T11:49:06.056Z,10.32
2022-11-23T11:51:59.226Z,10.10
2022-11-23T11:55:20.523Z,10.23
2022-11-23T11:57:54.934Z,10.29
2022-11-23T12:00:22.337Z,10.17
2022-11-23T12:03:26.897Z,10.19
2022-11-23T12:06:03.926Z,10.25
2022-11-23T12:08:40.704Z,10.28
2022-11-23T12:11:12.607Z,10.28
2022-11-23T12:13:44.457Z,10.30
2022-11-23T12:16:47.704Z,10.34
2022-11-23T12:19:27.937Z,10.34
2022-11-23T12:22:22.050Z,10.38
2022-11-23T12:25:01.892Z,10.40
2022-11-23T12:27:53.158Z,10.53
2022-11-23T12:30:27.018Z,10.43
2022-11-23T12:33:15.874Z,10.46
2022-11-23T12:36:08.335Z,10.47
2022-11-23T12:39:03.699Z,10.35
2022-11-23T12:42:03.324Z,10.36
2022-11-23T12:44:54.127Z,10.40
2022-11-23T12:47:45.910Z,10.41
2022-11-23T12:50:27.272Z,10.28
2022-11-23T12:53:21.389Z,11.10
2022-11-23T12:55:59.118Z,11.82
2022-11-23T12:58:32.392Z,10.77
2022-11-23T13:01:07.398Z,10.53
2022-11-23T13:03:43.946Z,10.57
2022-11-23T13:07:05.636Z,10.69
2022-11-23T13:09:54.939Z,10.73
2022-11-23T13:12:37.651Z,10.55
2022-11-23T13:15:19.412Z,10.63
2022-11-23T13:18:03.096Z,10.53
2022-11-23T13:20:57.401Z,10.44
2022-11-23T13:23:24.733Z,10.43
2022-11-23T13:26:20.961Z,10.47
2022-11-23T13:28:51.059Z,10.52
2022-11-23T13:31:21.479Z,10.51
2022-11-23T13:33:51.347Z,10.49
2022-11-23T13:36:56.299Z,10.52
2022-11-23T13:39:59.444Z,10.49
2022-11-23T13:42:32.518Z,10.38
2022-11-23T13:45:24.639Z,10.39
2022-11-23T13:48:11.509Z,10.48
2022-11-23T13:50:49.511Z,10.53
2022-11-23T13:53:25.689Z,10.57
2022-11-23T13:55:57.731Z,10.59
2022-11-23T13:58:24.844Z,10.45
2022-11-23T14:00:57.601Z,10.39
2022-11-23T14:03:47.357Z,10.39
2022-11-23T14:06:45.515Z,10.48
2022-11-23T14:09:29.727Z,10.65
2022-11-23T14:12:05.721Z,10.47
2022-11-23T14:14:42.606Z,10.33
2022-11-23T14:17:22.277Z,10.42
2022-11-23T14:20:32.040Z,10.39
2022-11-23T14:23:27.978Z,10.34
2022-11-23T14:26:32.491Z,10.30
2022-11-23T14:29:35.943Z,10.27
2022-11-23T14:32:26.366Z,10.30
2022-11-23T14:35:35.481Z,10.25
2022-11-23T14:38:37.513Z,10.23
2022-11-23T14:41:09.171Z,10.29
2022-11-23T14:43:43.851Z,10.41
2022-11-23T14:46:24.262Z,10.30
2022-11-23T14:49:02.314Z,10.31
2022-11-23T14:51:33.085Z,10.22
2022-11-23T14:54:11.052Z,10.18
2022-11-23T14:56:46.501Z,10.21
2022-11-23T14:59:16.631Z,10.13
2022-11-23T15:02:02.868Z,10.14
2022-11-23T15:04:40.853Z,10.14
2022-11-23T15:07:24.692Z,10.15
2022-11-23T15:10:17.078Z,10.32
2022-11-23T15:12:46.576Z,10.31
2022-11-23T15:15:22.239Z,10.35
2022-11-23T15:18:00.433Z,10.28
2022-11-23T15:20:33.559Z,10.74
2022-11-23T15:23:17.616Z,10.75
2022-11-23T15:25:54.832Z,10.73
2022-11-23T15:28:36.674Z,10.51
2022-11-23T15:31:36.347Z,10.32
2022-11-23T15:34:16.853Z,10.40
2022-11-23T15:36:46.156Z,10.34
2022-11-23T15:39:20.169Z,10.29
2022-11-23T15:41:48.345Z,10.43
2022-11-23T15:44:23.572Z,10.40
2022-11-23T15:46:58.706Z,10.41
2022-11-23T15:49:28.277Z,10.30
2022-11-23T15:52:02.478Z,10.24
2022-11-23T15:54:38.575Z,10.22
2022-11-23T15:57:21.855Z,10.31
2022-11-23T15:59:55.898Z,10.32
2022-11-23T16:02:29.724Z,10.25
2022-11-23T16:05:05.704Z,10.21
2022-11-23T16:07:32.966Z,10.09
2022-11-23T16:10:09.666Z,10.18
2022-11-23T16:12:47.569Z,10.22
2022-11-23T16:15:39.646Z,10.21
2022-11-23T16:18:18.270Z,10.32
2022-11-23T16:21:04.297Z,10.31
2022-11-23T16:23:50.947Z,10.28
2022-11-23T16:26:31.543Z,10.28
2022-11-23T16:29:00.576Z,10.24
2022-11-23T16:31:34.296Z,10.25
2022-11-23T16:34:18.072Z,10.21
2022-11-23T16:36:49.468Z,10.27
2022-11-23T16:39:20.349Z,10.35
2022-11-23T16:41:47.517Z,10.29
2022-11-23T16:44:17.664Z,10.25
2022-11-23T16:46:53.481Z,10.19
2022-11-23T16:49:25.493Z,10.19
2022-11-23T16:51:56.737Z,10.06
2022-11-23T16:54:27.292Z,10.01
2022-11-23T16:56:58.453Z,9.96
2022-11-23T16:59:28.291Z,9.91
2022-11-23T17:01:58.747Z,9.83
2022-11-23T17:04:29.663Z,9.82
2022-11-23T17:07:00.286Z,9.80
2022-11-23T17:09:30.500Z,9.90
2022-11-23T17:12:00.756Z,9.86
2022-11-23T17:14:35.348Z,9.87
2022-11-23T17:17:08.831Z,9.90
2022-11-23T17:19:36.163Z,9.91
2022-11-23T17:22:08.790Z,9.78
2022-11-23T17:24:41.908Z,9.79
2022-11-23T17:27:20.698Z,9.87
2022-11-23T17:29:56.903Z,9.90
2022-11-23T17:32:28.069Z,9.74
2022-11-23T17:34:58.231Z,9.80
2022-11-23T17:37:26.453Z,9.73
2022-11-23T17:39:59.839Z,9.71
2022-11-23T17:42:30.302Z,9.70
2022-11-23T17:45:00.807Z,9.82
2022-11-23T17:47:30.244Z,11.66
2022-11-23T17:50:00.943Z,10.79
2022-11-23T17:52:30.619Z,10.37
2022-11-23T17:55:00.902Z,10.29
2022-11-23T17:57:28.055Z,10.18
2022-11-23T18:00:02.207Z,9.93
2022-11-23T18:02:31.256Z,9.82
2022-11-23T18:05:01.040Z,9.66
2022-11-23T18:07:34.562Z,9.65
2022-11-23T18:10:12.018Z,9.63
2022-11-23T18:12:40.324Z,9.62
2022-11-23T18:15:13.316Z,9.67
2022-11-23T18:17:40.797Z,9.56
2022-11-23T18:20:09.125Z,9.63
2022-11-23T18:22:40.590Z,9.65
2022-11-23T18:25:10.470Z,9.47
2022-11-23T18:27:45.427Z,9.39
2022-11-23T18:30:15.309Z,9.31
2022-11-23T18:32:45.165Z,9.37
2022-11-23T18:35:18.033Z,9.41
2022-11-23T18:37:48.835Z,9.37
2022-11-23T18:40:22.725Z,9.31
2022-11-23T18:42:56.559Z,9.20
2022-11-23T18:45:30.801Z,9.12
2022-11-23T18:48:01.262Z,9.14
2022-11-23T18:50:35.743Z,9.15
2022-11-23T18:53:06.349Z,9.24
2022-11-23T18:55:49.261Z,9.21
2022-11-23T18:58:25.886Z,9.13
2022-11-23T19:00:59.168Z,9.12
2022-11-23T19:03:35.439Z,9.10
2022-11-23T19:06:14.076Z,9.18
2022-11-23T19:08:47.120Z,9.16
2022-11-23T19:11:19.680Z,9.02
2022-11-23T19:13:55.576Z,9.01
2022-11-23T19:16:33.154Z,9.00
2022-11-23T19:19:07.091Z,8.96
2022-11-23T19:21:40.485Z,9.07
2022-11-23T19:24:09.253Z,9.00
2022-11-23T19:26:37.400Z,9.08
2022-11-23T19:29:07.259Z,8.91
2022-11-23T19:31:38.044Z,8.91
2022-11-23T19:34:11.146Z,8.92
2022-11-23T19:36:41.814Z,8.96
2022-11-23T19:39:18.468Z,8.99
2022-11-23T19:42:02.373Z,8.92
2022-11-23T19:44:32.650Z,9.02
2022-11-23T19:47:11.671Z,8.93
2022-11-23T19:49:51.048Z,8.97
2022-11-23T19:52:22.164Z,9.01
2022-11-23T19:55:03.904Z,8.94
2022-11-23T19:57:36.282Z,8.88
2022-11-23T20:00:10.851Z,9.06
2022-11-23T20:02:40.307Z,9.08
2022-11-23T20:08:01.810Z,9.11
2022-11-23T20:10:42.129Z,9.15
2022-11-23T20:13:19.823Z,9.33
2022-11-23T20:16:12.289Z,9.17
2022-11-23T20:18:46.269Z,9.06
2022-11-23T20:21:32.870Z,8.99
2022-11-23T20:24:24.520Z,9.03
2022-11-23T20:27:01.595Z,9.03
2022-11-23T20:29:45.409Z,9.07
2022-11-23T20:32:21.495Z,9.10
2022-11-23T20:35:00.903Z,9.08
2022-11-23T20:37:34.533Z,9.02
2022-11-23T20:40:25.069Z,9.05
2022-11-23T20:43:06.886Z,8.87
2022-11-23T20:45:48.420Z,8.89
2022-11-23T20:48:31.495Z,8.80
2022-11-23T20:51:10.445Z,8.78
2022-11-23T20:53:39.111Z,8.85
2022-11-23T20:56:27.866Z,8.88
2022-11-23T20:59:03.109Z,8.87
2022-11-23T21:01:34.200Z,8.87
2022-11-23T21:04:08.402Z,8.84
2022-11-23T21:06:41.465Z,8.89
2022-11-23T21:09:15.450Z,8.81
2022-11-23T21:11:50.909Z,8.78
2022-11-23T21:14:25.222Z,8.84
2022-11-23T21:17:04.953Z,8.83
2022-11-23T21:19:38.553Z,8.77
2022-11-23T21:22:17.832Z,8.84
2022-11-23T21:25:02.083Z,8.85
2022-11-23T21:30:22.588Z,8.78
2022-11-23T21:32:55.785Z,8.80
2022-11-23T21:35:29.666Z,8.83
2022-11-23T21:38:02.093Z,8.90
2022-11-23T21:40:43.837Z,9.05
2022-11-23T21:43:19.053Z,8.82
2022-11-23T21:46:11.039Z,8.76
2022-11-23T21:48:49.426Z,8.81
2022-11-23T21:51:24.026Z,8.73
2022-11-23T21:54:06.958Z,8.69
2022-11-23T21:56:49.121Z,8.71
2022-11-23T21:59:25.859Z,8.72
2022-11-23T22:02:11.726Z,8.70
2022-11-23T22:05:00.525Z,8.75
2022-11-23T22:07:28.284Z,8.85
2022-11-23T22:10:08.520Z,8.66
2022-11-23T22:12:44.518Z,8.66
2022-11-23T22:15:15.217Z,8.65
2022-11-23T22:17:46.049Z,8.77
2022-11-23T22:20:20.662Z,8.78
2022-11-23T22:25:54.918Z,8.81
2022-11-23T22:28:55.434Z,8.86
2022-11-23T22:31:27.243Z,8.84
2022-11-23T22:34:01.699Z,8.80
2022-11-23T22:36:38.476Z,8.85
2022-11-23T22:39:13.097Z,8.74
2022-11-23T22:41:44.844Z,8.80
2022-11-23T22:44:28.625Z,8.77
2022-11-23T22:47:05.711Z,8.79
2022-11-23T22:49:42.195Z,8.83
2022-11-23T22:52:20.225Z,8.82
2022-11-23T22:54:56.238Z,8.82
2022-11-23T22:57:27.250Z,8.84
2022-11-23T22:59:59.595Z,8.83
2022-11-23T23:05:21.222Z,8.84
2022-11-23T23:07:55.662Z,8.80
2022-11-23T23:10:28.737Z,8.81
2022-11-23T23:13:14.667Z,8.86
2022-11-23T23:15:41.831Z,8.89
2022-11-23T23:18:13.979Z,8.85
2022-11-23T23:20:45.958Z,8.81
2022-11-23T23:23:26.491Z,8.82
2022-11-23T23:28:57.116Z,8.91
2022-11-23T23:31:40.045Z,8.80
2022-11-23T23:34:23.853Z,8.80
2022-11-23T23:36:54.435Z,8.87
2022-11-23T23:39:43.475Z,8.81
2022-11-23T23:42:21.914Z,8.79
2022-11-23T23:44:54.939Z,8.90
2022-11-23T23:47:22.978Z,8.83
2022-11-23T23:50:11.589Z,8.88
2022-11-23T23:52:42.036Z,8.87
2022-11-23T23:55:20.787Z,8.87
2022-11-23T23:57:54.206Z,8.89
